createdAt,value
2022-11-13T00:02:49.816Z,2.60
2022-11-13T00:08:10.175Z,2.70
2022-11-13T00:13:31.021Z,2.35
2022-11-13T00:18:51.146Z,2.28
2022-11-13T00:24:12.149Z,2.30
2022-11-13T00:29:32.306Z,2.75
2022-11-13T00:34:52.910Z,2.10
2022-11-13T00:40:13.199Z,2.05
2022-11-13T00:45:33.545Z,2.47
2022-11-13T00:50:54.103Z,2.47
2022-11-13T00:56:14.693Z,1.90
2022-11-13T01:01:35.085Z,2.25
2022-11-13T01:06:55.684Z,1.83
2022-11-13T01:12:15.784Z,2.17
2022-11-13T01:17:36.672Z,1.98
2022-11-13T01:22:56.951Z,2.10
2022-11-13T01:28:17.341Z,1.98
2022-11-13T01:33:37.923Z,1.70
2022-11-13T01:38:58.878Z,1.95
2022-11-13T01:44:20.326Z,1.60
2022-11-13T01:49:43.800Z,1.73
2022-11-13T01:55:17.169Z,1.52
2022-11-13T02:00:37.513Z,1.52
2022-11-13T02:05:58.036Z,1.33
2022-11-13T02:11:20.010Z,2.30
2022-11-13T02:16:43.070Z,2.50
2022-11-13T02:22:09.224Z,2.80
2022-11-13T02:27:36.192Z,2.75
2022-11-13T02:32:58.458Z,3.28
2022-11-13T02:38:18.748Z,4.10
2022-11-13T02:43:39.144Z,2.33
2022-11-13T02:48:59.543Z,1.92
2022-11-13T02:54:19.843Z,2.47
2022-11-13T02:59:40.406Z,3.08
2022-11-13T03:05:16.291Z,2.95
2022-11-13T03:10:36.849Z,4.07
2022-11-13T03:15:57.170Z,5.15
2022-11-13T03:21:17.141Z,5.65
2022-11-13T03:26:37.700Z,5.50
2022-11-13T03:31:58.280Z,5.00
2022-11-13T03:37:18.773Z,4.47
2022-11-13T03:42:38.960Z,5.32
2022-11-13T03:47:59.357Z,5.82
2022-11-13T03:53:19.712Z,6.13
2022-11-13T03:58:40.391Z,6.30
2022-11-13T04:04:00.678Z,7.55
2022-11-13T04:09:20.778Z,7.20
2022-11-13T04:14:41.050Z,7.00
2022-11-13T04:20:01.139Z,6.72
2022-11-13T04:25:21.479Z,7.90
2022-11-13T04:30:41.889Z,7.80
2022-11-13T04:36:02.339Z,7.90
2022-11-13T04:41:41.452Z,7.68
2022-11-13T04:47:04.885Z,10.18
2022-11-13T04:52:24.914Z,11.30
2022-11-13T04:57:45.219Z,9.93
2022-11-13T05:03:05.497Z,11.65
2022-11-13T05:08:26.096Z,10.52
2022-11-13T05:13:46.336Z,9.88
2022-11-13T05:19:07.150Z,8.90
2022-11-13T05:24:27.632Z,8.73
2022-11-13T05:29:47.583Z,8.70
2022-11-13T05:35:07.850Z,9.02
2022-11-13T05:40:29.144Z,8.32
2022-11-13T05:45:49.160Z,8.73
2022-11-13T05:51:10.781Z,8.75
2022-11-13T05:56:34.148Z,8.90
2022-11-13T06:01:54.370Z,8.73
2022-11-13T06:07:14.596Z,8.65
2022-11-13T06:12:34.928Z,8.48
2022-11-13T06:17:54.896Z,8.77
2022-11-13T06:23:14.899Z,8.60
2022-11-13T06:28:36.265Z,9.00
2022-11-13T06:33:59.012Z,8.52
2022-11-13T06:39:19.258Z,9.15
2022-11-13T06:44:39.631Z,9.80
2022-11-13T06:49:59.536Z,10.52
2022-11-13T06:55:19.536Z,9.88
2022-11-13T07:00:40.975Z,9.93
2022-11-13T07:06:04.078Z,9.57
2022-11-13T07:11:24.213Z,9.27
2022-11-13T07:17:08.102Z,8.20
2022-11-13T07:22:24.518Z,8.88
2022-11-13T07:27:45.659Z,8.95
2022-11-13T07:33:05.918Z,8.70
2022-11-13T07:38:26.649Z,8.63
2022-11-13T07:43:47.405Z,8.73
2022-11-13T07:49:07.521Z,8.63
2022-11-13T07:54:27.835Z,8.85
2022-11-13T07:59:48.080Z,7.85
2022-11-13T08:05:08.697Z,8.95
2022-11-13T08:10:30.112Z,8.20
2022-11-13T08:15:50.555Z,7.75
2022-11-13T08:21:14.917Z,8.50
2022-11-13T08:26:37.983Z,9.05
2022-11-13T08:31:58.650Z,7.95
2022-11-13T08:37:18.887Z,8.85
2022-11-13T08:42:39.078Z,7.13
2022-11-13T08:48:01.303Z,9.10
2022-11-13T08:53:22.943Z,9.35
2022-11-13T08:58:42.988Z,8.18
2022-11-13T09:04:03.728Z,8.52
2022-11-13T09:09:23.999Z,8.35
2022-11-13T09:14:44.470Z,8.43
2022-11-13T09:20:12.645Z,7.72
2022-11-13T09:25:37.793Z,7.80
2022-11-13T09:30:58.227Z,8.50
2022-11-13T09:36:18.642Z,8.32
2022-11-13T09:41:44.767Z,8.82
2022-11-13T09:47:14.226Z,8.10
2022-11-13T09:52:40.656Z,8.88
2022-11-13T09:58:11.328Z,8.52
2022-11-13T10:04:01.391Z,7.40
2022-11-13T10:09:41.495Z,7.82
2022-11-13T10:15:12.908Z,7.78
2022-11-13T10:26:16.010Z,7.82
2022-11-13T10:31:49.272Z,8.05
2022-11-13T10:37:43.031Z,7.70
2022-11-13T10:43:26.892Z,7.53
2022-11-13T10:48:49.576Z,8.00
2022-11-13T10:54:35.937Z,7.97
2022-11-13T10:59:59.423Z,8.15
2022-11-13T11:05:26.481Z,7.20
2022-11-13T11:11:39.613Z,7.90
2022-11-13T11:17:07.200Z,7.03
2022-11-13T11:22:35.968Z,7.80
2022-11-13T11:28:14.615Z,7.53
2022-11-13T11:34:00.847Z,7.10
2022-11-13T11:39:51.530Z,7.75
2022-11-13T11:45:43.389Z,8.80
2022-11-13T11:51:35.051Z,8.07
2022-11-13T11:57:00.308Z,8.00
2022-11-13T12:02:38.994Z,8.82
2022-11-13T12:13:49.322Z,8.50
2022-11-13T12:19:28.665Z,9.00
2022-11-13T12:25:13.964Z,8.93
2022-11-13T12:30:41.807Z,7.72
2022-11-13T12:36:20.769Z,8.60
2022-11-13T12:41:49.268Z,8.75
2022-11-13T12:47:09.948Z,8.48
2022-11-13T12:52:30.122Z,8.25
2022-11-13T12:57:55.816Z,8.20
2022-11-13T13:03:49.707Z,8.90
2022-11-13T13:09:37.170Z,8.95
2022-11-13T13:15:09.555Z,9.52
2022-11-13T13:20:44.893Z,8.13
2022-11-13T13:26:09.040Z,9.00
2022-11-13T13:31:41.796Z,9.57
2022-11-13T13:37:30.995Z,10.02
2022-11-13T13:43:11.294Z,9.65
2022-11-13T13:48:32.227Z,10.10
2022-11-13T13:53:55.097Z,9.48
2022-11-13T13:59:21.007Z,10.43
2022-11-13T14:04:47.738Z,9.90
2022-11-13T14:10:20.251Z,9.60
2022-11-13T14:15:41.887Z,10.65
2022-11-13T14:21:22.215Z,10.85
2022-11-13T14:26:42.578Z,11.27
2022-11-13T14:32:18.546Z,11.23
2022-11-13T14:37:52.158Z,11.35
2022-11-13T14:43:32.791Z,11.80
2022-11-13T14:48:56.485Z,11.65
2022-11-13T14:54:53.151Z,11.95
2022-11-13T15:00:15.746Z,12.50
2022-11-13T15:05:38.055Z,11.70
2022-11-13T15:10:59.665Z,12.07
2022-11-13T15:16:31.867Z,12.10
2022-11-13T15:22:25.084Z,12.73
2022-11-13T15:27:42.861Z,12.10
2022-11-13T15:33:12.212Z,13.15
2022-11-13T15:38:36.004Z,12.70
2022-11-13T15:44:02.886Z,12.32
2022-11-13T15:49:27.804Z,12.23
2022-11-13T15:54:59.711Z,12.68
2022-11-13T16:00:25.149Z,12.73
2022-11-13T16:05:46.059Z,13.00
2022-11-13T16:11:18.793Z,12.13
2022-11-13T16:16:43.503Z,12.27
2022-11-13T16:22:32.798Z,12.75
2022-11-13T16:28:04.500Z,12.02
2022-11-13T16:33:27.572Z,12.38
2022-11-13T16:38:48.911Z,12.75
2022-11-13T16:44:13.962Z,12.52
2022-11-13T16:49:36.620Z,12.70
2022-11-13T16:55:03.598Z,12.60
2022-11-13T17:00:31.020Z,11.57
2022-11-13T17:05:53.230Z,12.55
2022-11-13T17:11:15.932Z,11.75
2022-11-13T17:16:39.404Z,12.48
2022-11-13T17:22:06.632Z,12.68
2022-11-13T17:27:29.469Z,12.88
2022-11-13T17:32:49.373Z,12.10
2022-11-13T17:38:13.721Z,12.27
2022-11-13T17:43:42.687Z,13.43
2022-11-13T17:49:07.016Z,13.25
2022-11-13T17:54:37.161Z,13.80
2022-11-13T17:59:59.806Z,13.43
2022-11-13T18:05:22.730Z,13.15
2022-11-13T18:10:45.706Z,13.60
2022-11-13T18:16:15.903Z,15.07
2022-11-13T18:21:41.998Z,14.65
2022-11-13T18:27:03.759Z,14.32
2022-11-13T18:32:23.819Z,14.43
2022-11-13T18:37:54.118Z,13.93
2022-11-13T18:43:21.549Z,15.50
2022-11-13T18:48:43.197Z,15.23
2022-11-13T18:54:09.944Z,14.35
2022-11-13T18:59:30.788Z,15.60
2022-11-13T19:04:53.413Z,14.25
2022-11-13T19:10:16.031Z,15.10
2022-11-13T19:15:39.210Z,15.63
2022-11-13T19:21:13.619Z,15.27
2022-11-13T19:26:47.722Z,15.13
2022-11-13T19:32:10.224Z,15.23
2022-11-13T19:37:31.245Z,16.08
2022-11-13T19:43:02.151Z,15.52
2022-11-13T19:48:26.873Z,16.63
2022-11-13T19:54:00.551Z,17.45
2022-11-13T19:59:23.115Z,16.35
2022-11-13T20:04:43.208Z,15.80
2022-11-13T20:10:09.688Z,17.33
2022-11-13T20:15:35.344Z,16.45
2022-11-13T20:20:59.271Z,15.98
2022-11-13T20:26:27.564Z,17.23
2022-11-13T20:31:51.974Z,16.58
2022-11-13T20:37:14.737Z,16.55
2022-11-13T20:42:40.243Z,16.60
2022-11-13T20:48:26.050Z,16.58
2022-11-13T20:53:52.085Z,16.45
2022-11-13T20:59:12.366Z,17.33
2022-11-13T21:04:38.141Z,16.75
2022-11-13T21:10:03.215Z,16.77
2022-11-13T21:15:26.077Z,17.48
2022-11-13T21:20:51.860Z,17.67
2022-11-13T21:26:19.827Z,17.70
2022-11-13T21:31:40.276Z,17.35
2022-11-13T21:37:04.900Z,18.17
2022-11-13T21:42:27.265Z,18.15
2022-11-13T21:47:50.707Z,18.10
2022-11-13T21:53:12.190Z,18.08
2022-11-13T21:58:38.662Z,18.33
2022-11-13T22:04:08.933Z,19.02
2022-11-13T22:09:40.518Z,19.20
2022-11-13T22:15:00.800Z,19.48
2022-11-13T22:20:23.934Z,19.05
2022-11-13T22:25:47.016Z,17.92
2022-11-13T22:31:19.496Z,18.60
2022-11-13T22:36:41.835Z,17.67
2022-11-13T22:42:02.016Z,19.83
2022-11-13T22:47:27.137Z,18.92
2022-11-13T22:52:51.572Z,18.45
2022-11-13T22:58:14.657Z,18.08
2022-11-13T23:03:45.646Z,18.58
2022-11-13T23:09:09.548Z,18.45
2022-11-13T23:14:39.732Z,19.95
2022-11-13T23:20:00.052Z,18.48
2022-11-13T23:25:25.355Z,19.42
2022-11-13T23:30:54.717Z,18.63
2022-11-13T23:36:17.897Z,19.42
2022-11-13T23:41:45.556Z,19.38
2022-11-13T23:47:08.078Z,19.30
2022-11-13T23:52:30.630Z,19.65
2022-11-13T23:58:02.967Z,18.95
